Time,TemperatureF,DewpointF,PressureIn,WindDirection,WindDirectionDegrees,WindSpeedMPH,WindSpeedGustMPH,Humidity,HourlyPrecipIn,Conditions,Clouds,dailyrainin,SoftwareType,DateUTC
2013-04-06 00:04:00,40.4,34.7,29.88,SW,225,2.0,6.7,80,0.00,,,0.00,WUHU216HW,2013-04-06 06:04:00,
2013-04-06 00:09:00,40.4,34.7,29.88,SSW,203,1.7,5.5,80,0.00,,,0.00,WUHU216HW,2013-04-06 06:09:00,
2013-04-06 00:14:00,40.2,34.5,29.89,SW,225,0.0,5.1,80,0.00,,,0.00,WUHU216HW,2013-04-06 06:14:00,
2013-04-06 00:19:00,40.2,34.5,29.89,SW,225,3.3,5.1,80,0.00,,,0.00,WUHU216HW,2013-04-06 06:19:00,
2013-04-06 00:24:00,40.2,34.5,29.88,SW,225,3.3,5.1,80,0.00,,,0.00,WUHU216HW,2013-04-06 06:24:00,
2013-04-06 00:30:00,40.1,34.4,29.88,SW,225,2.0,4.4,80,0.00,,,0.00,WUHU216HW,2013-04-06 06:30:00,
2013-04-06 00:35:00,39.9,34.2,29.88,SW,225,2.6,2.6,80,0.00,,,0.00,WUHU216HW,2013-04-06 06:35:00,
2013-04-06 00:40:00,39.9,34.2,29.88,SW,225,0.8,3.3,80,0.00,,,0.00,WUHU216HW,2013-04-06 06:40:00,
2013-04-06 00:45:00,39.7,34.1,29.88,SW,225,0.0,3.3,80,0.00,,,0.00,WUHU216HW,2013-04-06 06:45:00,
2013-04-06 00:50:00,39.3,33.7,29.88,WSW,248,2.2,2.4,80,0.00,,,0.00,WUHU216HW,2013-04-06 06:50:00,
2013-04-06 00:55:00,39.0,33.4,29.88,WSW,248,0.0,2.4,80,0.00,,,0.00,WUHU216HW,2013-04-06 06:55:00,
2013-04-06 01:00:00,38.8,33.2,29.87,WSW,248,0.0,2.2,80,0.00,,,0.00,WUHU216HW,2013-04-06 07:00:00,
2013-04-06 01:05:00,39.0,33.2,29.87,SSW,203,0.0,0.0,80,0.00,,,0.00,WUHU216HW,2013-04-06 07:05:00,
2013-04-06 01:10:00,38.3,33.0,29.88,South,180,2.6,2.6,81,0.00,,,0.00,WUHU216HW,2013-04-06 07:10:00,
2013-04-06 01:15:00,38.1,32.8,29.88,SW,225,0.0,5.5,81,0.00,,,0.00,WUHU216HW,2013-04-06 07:15:00,
2013-04-06 01:20:00,37.9,32.9,29.88,WSW,248,0.0,5.5,82,0.00,,,0.00,WUHU216HW,2013-04-06 07:20:00,
2013-04-06 01:25:00,37.9,32.9,29.88,SW,225,2.4,3.3,82,0.00,,,0.00,WUHU216HW,2013-04-06 07:25:00,
2013-04-06 01:30:00,37.9,32.9,29.87,SSW,203,0.0,4.0,82,0.00,,,0.00,WUHU216HW,2013-04-06 07:30:00,
2013-04-06 01:36:00,38.3,33.2,29.87,SSW,203,3.1,4.0,82,0.00,,,0.00,WUHU216HW,2013-04-06 07:36:00,
2013-04-06 01:41:00,38.3,33.2,29.87,SSW,203,0.0,3.1,82,0.00,,,0.00,WUHU216HW,2013-04-06 07:41:00,
2013-04-06 01:46:00,38.3,33.2,29.88,SSW,203,0.0,0.0,82,0.00,,,0.00,WUHU216HW,2013-04-06 07:46:00,
2013-04-06 01:51:00,38.1,33.1,29.88,WSW,248,0.0,0.0,82,0.00,,,0.00,WUHU216HW,2013-04-06 07:51:00,
2013-04-06 01:56:00,37.9,32.9,29.87,SW,225,0.0,2.4,82,0.00,,,0.00,WUHU216HW,2013-04-06 07:56:00,
2013-04-06 02:01:00,37.5,32.2,29.88,SW,225,0.0,2.4,81,0.00,,,0.00,WUHU216HW,2013-04-06 08:01:00,
2013-04-06 02:06:00,37.2,31.9,29.87,West,270,1.5,1.5,81,0.00,,,0.00,WUHU216HW,2013-04-06 08:06:00,
2013-04-06 02:11:00,37.0,32.0,29.88,SW,225,4.2,5.1,82,0.00,,,0.00,WUHU216HW,2013-04-06 08:11:00,
2013-04-06 02:16:00,37.0,32.3,29.87,SSW,203,4.6,5.8,83,0.00,,,0.00,WUHU216HW,2013-04-06 08:16:00,
2013-04-06 02:21:00,37.2,32.5,29.87,SW,225,5.5,9.6,83,0.00,,,0.00,WUHU216HW,2013-04-06 08:21:00,
2013-04-06 02:28:00,38.1,33.6,29.87,SW,225,4.0,8.9,84,0.00,,,0.00,WUHU216HW,2013-04-06 08:28:00,
2013-04-06 02:33:00,38.4,33.7,29.87,SSW,203,5.1,7.6,83,0.00,,,0.00,WUHU216HW,2013-04-06 08:33:00,
2013-04-06 02:38:00,38.8,34.3,29.87,SW,225,2.9,7.6,83,0.00,,,0.00,WUHU216HW,2013-04-06 08:38:00,
2013-04-06 02:43:00,39.3,34.3,29.87,SW,225,6.0,6.0,82,0.00,,,0.00,WUHU216HW,2013-04-06 08:43:00,
2013-04-06 02:48:00,39.3,34.3,29.87,SW,225,0.4,6.4,82,0.00,,,0.00,WUHU216HW,2013-04-06 08:48:00,
2013-04-06 02:53:00,39.5,34.2,29.87,West,270,1.1,6.4,81,0.00,,,0.00,WUHU216HW,2013-04-06 08:53:00,
2013-04-06 02:58:00,39.7,34.3,29.87,SSW,203,5.1,6.7,81,0.00,,,0.00,WUHU216HW,2013-04-06 08:58:00,
2013-04-06 03:04:00,39.7,34.3,29.87,SW,225,3.1,6.7,81,0.00,,,0.00,WUHU216HW,2013-04-06 09:04:00,
2013-04-06 03:09:00,39.7,34.3,29.86,SSW,203,4.9,6.2,81,0.00,,,0.00,WUHU216HW,2013-04-06 09:09:00,
2013-04-06 03:14:00,39.9,34.2,29.86,SSW,203,0.0,5.5,80,0.00,,,0.00,WUHU216HW,2013-04-06 09:14:00,
2013-04-06 03:19:00,39.7,34.1,29.86,SSW,203,6.2,6.9,80,0.00,,,0.00,WUHU216HW,2013-04-06 09:19:00,
2013-04-06 03:24:00,39.5,33.9,29.86,SSW,203,4.6,7.8,80,0.00,,,0.00,WUHU216HW,2013-04-06 09:24:00,
2013-04-06 03:29:00,39.5,33.9,29.86,SSW,203,6.0,7.8,80,0.00,,,0.00,WUHU216HW,2013-04-06 09:29:00,
2013-04-06 03:34:00,39.5,33.9,29.86,SW,225,4.4,6.0,80,0.00,,,0.00,WUHU216HW,2013-04-06 09:34:00,
2013-04-06 03:39:00,39.5,33.9,29.86,SSW,203,4.6,5.8,80,0.00,,,0.00,WUHU216HW,2013-04-06 09:39:00,
2013-04-06 03:44:00,39.5,33.9,29.85,SSW,203,4.0,5.8,80,0.00,,,0.00,WUHU216HW,2013-04-06 09:44:00,
2013-04-06 03:50:00,39.3,33.7,29.85,SSW,203,6.4,8.2,80,0.00,,,0.00,WUHU216HW,2013-04-06 09:50:00,
2013-04-06 03:55:00,39.3,33.7,29.86,SSW,203,4.0,8.9,80,0.00,,,0.00,WUHU216HW,2013-04-06 09:55:00,
2013-04-06 04:00:00,39.3,33.7,29.86,SSW,203,5.8,8.9,80,0.00,,,0.00,WUHU216HW,2013-04-06 10:00:00,
2013-04-06 04:05:00,39.3,33.7,29.86,SSW,203,8.0,8.0,80,0.00,,,0.00,WUHU216HW,2013-04-06 10:05:00,
2013-04-06 04:10:00,39.3,33.7,29.85,SW,225,6.7,8.5,80,0.00,,,0.00,WUHU216HW,2013-04-06 10:10:00,
2013-04-06 04:15:00,39.3,33.7,29.85,SSW,203,4.9,8.5,80,0.00,,,0.00,WUHU216HW,2013-04-06 10:15:00,
2013-04-06 04:20:00,39.5,33.6,29.86,SW,225,4.6,7.8,79,0.00,,,0.00,WUHU216HW,2013-04-06 10:20:00,
2013-04-06 04:25:00,39.7,34.1,29.85,SW,225,7.3,8.2,80,0.00,,,0.00,WUHU216HW,2013-04-06 10:25:00,
2013-04-06 04:30:00,39.7,34.1,29.86,SW,225,3.5,8.2,80,0.00,,,0.00,WUHU216HW,2013-04-06 10:30:00,
2013-04-06 04:35:00,39.9,33.9,29.85,SW,225,2.9,5.3,79,0.00,,,0.00,WUHU216HW,2013-04-06 10:35:00,
2013-04-06 04:40:00,39.9,33.9,29.85,SW,225,0.0,5.3,79,0.00,,,0.00,WUHU216HW,2013-04-06 10:40:00,
2013-04-06 04:45:00,39.9,33.9,29.85,SW,225,1.7,6.0,79,0.00,,,0.00,WUHU216HW,2013-04-06 10:45:00,
2013-04-06 04:50:00,40.1,34.0,29.85,WSW,248,2.4,6.0,79,0.00,,,0.00,WUHU216HW,2013-04-06 10:50:00,
2013-04-06 04:55:00,39.9,33.9,29.85,SW,225,4.2,4.2,79,0.00,,,0.00,WUHU216HW,2013-04-06 10:55:00,
2013-04-06 05:00:00,39.9,33.9,29.85,SW,225,5.3,5.3,79,0.00,,,0.00,WUHU216HW,2013-04-06 11:00:00,
2013-04-06 05:06:00,39.9,33.9,29.85,SW,225,2.2,5.3,79,0.00,,,0.00,WUHU216HW,2013-04-06 11:06:00,
2013-04-06 05:11:00,40.1,34.0,29.85,SW,225,2.9,3.5,79,0.00,,,0.00,WUHU216HW,2013-04-06 11:11:00,
2013-04-06 05:16:00,40.1,34.0,29.85,SW,225,1.3,2.9,79,0.00,,,0.00,WUHU216HW,2013-04-06 11:16:00,
2013-04-06 05:21:00,40.1,34.0,29.85,SW,225,1.5,3.3,79,0.00,,,0.00,WUHU216HW,2013-04-06 11:21:00,
2013-04-06 05:27:00,40.1,34.0,29.84,SW,225,2.0,3.3,79,0.00,,,0.00,WUHU216HW,2013-04-06 11:27:00,
2013-04-06 05:32:00,39.9,33.9,29.84,WSW,248,0.0,3.1,79,0.00,,,0.00,WUHU216HW,2013-04-06 11:32:00,
2013-04-06 05:33:00,39.9,33.9,29.84,SW,225,3.1,3.1,79,0.00,,,0.00,WUHU216HW,2013-04-06 11:33:00,
2013-04-06 05:38:00,39.9,33.9,29.84,SW,225,0.6,5.5,79,0.00,,,0.00,WUHU216HW,2013-04-06 11:38:00,
2013-04-06 05:43:00,39.9,33.9,29.84,SW,225,0.0,4.4,79,0.00,,,0.00,WUHU216HW,2013-04-06 11:43:00,
2013-04-06 05:49:00,39.9,33.9,29.84,SSW,203,3.8,7.6,79,0.00,,,0.00,WUHU216HW,2013-04-06 11:49:00,
2013-04-06 05:54:00,39.7,33.7,29.84,SW,225,2.2,7.6,79,0.00,,,0.00,WUHU216HW,2013-04-06 11:54:00,
2013-04-06 05:59:00,39.7,34.1,29.84,SSW,203,0.0,7.6,80,0.00,,,0.00,WUHU216HW,2013-04-06 11:59:00,
2013-04-06 06:04:00,39.7,34.1,29.84,SSW,203,5.1,8.7,80,0.00,,,0.00,WUHU216HW,2013-04-06 12:04:00,
2013-04-06 06:09:00,39.7,34.1,29.84,West,270,1.3,5.1,80,0.00,,,0.00,WUHU216HW,2013-04-06 12:09:00,
2013-04-06 06:15:00,39.7,34.1,29.84,SW,225,0.0,1.7,80,0.00,,,0.00,WUHU216HW,2013-04-06 12:15:00,
2013-04-06 06:20:00,39.7,34.1,29.84,West,270,1.7,1.7,80,0.00,,,0.00,WUHU216HW,2013-04-06 12:20:00,
2013-04-06 06:25:00,39.5,34.2,29.84,West,270,0.0,1.7,81,0.00,,,0.00,WUHU216HW,2013-04-06 12:25:00,
2013-04-06 06:30:00,39.3,34.0,29.84,SW,225,0.0,1.3,81,0.00,,,0.00,WUHU216HW,2013-04-06 12:30:00,
2013-04-06 06:35:00,39.3,34.0,29.84,SW,225,0.0,2.6,81,0.00,,,0.00,WUHU216HW,2013-04-06 12:35:00,
2013-04-06 06:40:00,39.0,34.0,29.84,SSW,203,3.1,3.1,82,0.00,,,0.00,WUHU216HW,2013-04-06 12:40:00,
2013-04-06 06:45:00,39.0,34.0,29.84,North,0,0.0,3.1,82,0.00,,,0.00,WUHU216HW,2013-04-06 12:45:00,
2013-04-06 06:50:00,39.0,34.0,29.84,WSW,248,0.0,2.0,82,0.00,,,0.00,WUHU216HW,2013-04-06 12:50:00,
2013-04-06 06:55:00,38.8,33.8,29.84,WSW,248,0.0,0.0,82,0.00,,,0.00,WUHU216HW,2013-04-06 12:55:00,
2013-04-06 07:00:00,38.8,33.8,29.84,SSW,203,0.0,2.2,82,0.00,,,0.00,WUHU216HW,2013-04-06 13:00:00,
2013-04-06 07:07:00,38.4,33.7,29.84,SSW,203,4.6,4.6,83,0.00,,,0.00,WUHU216HW,2013-04-06 13:07:00,
2013-04-06 07:12:00,38.4,33.7,29.84,SW,225,0.0,4.6,83,0.00,,,0.00,WUHU216HW,2013-04-06 13:12:00,
2013-04-06 07:17:00,38.4,33.7,29.84,SW,225,0.0,2.0,83,0.00,,,0.00,WUHU216HW,2013-04-06 13:17:00,
2013-04-06 07:22:00,38.3,33.8,29.84,WSW,248,0.0,2.0,84,0.00,,,0.00,WUHU216HW,2013-04-06 13:22:00,
2013-04-06 07:27:00,38.3,33.8,29.84,SW,225,0.0,0.0,84,0.00,,,0.00,WUHU216HW,2013-04-06 13:27:00,
2013-04-06 07:32:00,38.1,33.6,29.84,SSW,203,1.7,3.5,84,0.00,,,0.00,WUHU216HW,2013-04-06 13:32:00,
2013-04-06 07:37:00,38.1,33.6,29.84,WSW,248,0.0,3.5,84,0.00,,,0.00,WUHU216HW,2013-04-06 13:37:00,
2013-04-06 07:42:00,38.1,33.9,29.84,SW,225,0.0,2.0,85,0.00,,,0.00,WUHU216HW,2013-04-06 13:42:00,
2013-04-06 07:47:00,38.1,33.9,29.84,SW,225,0.0,2.0,85,0.00,,,0.00,WUHU216HW,2013-04-06 13:47:00,
2013-04-06 07:52:00,38.1,34.2,29.84,West,270,0.0,5.5,86,0.00,,,0.00,WUHU216HW,2013-04-06 13:52:00,
2013-04-06 07:58:00,38.1,34.2,29.84,West,270,3.8,5.5,86,0.00,,,0.00,WUHU216HW,2013-04-06 13:58:00,
2013-04-06 08:03:00,38.3,34.4,29.84,West,270,2.2,3.8,86,0.00,,,0.00,WUHU216HW,2013-04-06 14:03:00,
2013-04-06 08:08:00,38.3,34.4,29.84,West,270,0.0,3.3,86,0.00,,,0.00,WUHU216HW,2013-04-06 14:08:00,
2013-04-06 08:13:00,38.4,34.9,29.83,West,270,0.0,1.1,87,0.00,,,0.00,WUHU216HW,2013-04-06 14:13:00,
2013-04-06 08:18:00,38.6,35.0,29.84,WNW,293,2.4,2.4,87,0.00,,,0.00,WUHU216HW,2013-04-06 14:18:00,
2013-04-06 08:23:00,38.8,35.2,29.84,West,270,0.0,5.3,87,0.00,,,0.00,WUHU216HW,2013-04-06 14:23:00,
2013-04-06 08:28:00,39.0,35.4,29.84,West,270,0.0,5.3,87,0.00,,,0.00,WUHU216HW,2013-04-06 14:28:00,
2013-04-06 08:33:00,39.0,35.4,29.83,WNW,293,1.5,1.5,87,0.00,,,0.00,WUHU216HW,2013-04-06 14:33:00,
2013-04-06 08:38:00,39.0,35.6,29.83,North,0,0.0,2.4,87,0.00,,,0.00,WUHU216HW,2013-04-06 14:38:00,
2013-04-06 08:43:00,39.3,35.7,29.83,SW,225,0.0,2.4,87,0.00,,,0.00,WUHU216HW,2013-04-06 14:43:00,
2013-04-06 08:48:00,39.3,35.7,29.83,West,270,0.0,2.0,87,0.00,,,0.00,WUHU216HW,2013-04-06 14:48:00,
2013-04-06 08:53:00,39.5,35.9,29.83,West,270,2.2,2.2,87,0.00,,,0.00,WUHU216HW,2013-04-06 14:53:00,
2013-04-06 08:58:00,39.7,36.1,29.83,West,270,0.0,2.9,87,0.00,,,0.00,WUHU216HW,2013-04-06 14:58:00,
2013-04-06 09:03:00,39.9,36.3,29.83,West,270,0.0,2.9,87,0.00,,,0.00,WUHU216HW,2013-04-06 15:03:00,
2013-04-06 09:09:00,40.1,36.5,29.83,West,270,0.0,2.0,87,0.00,,,0.00,WUHU216HW,2013-04-06 15:09:00,
2013-04-06 09:14:00,40.2,36.3,29.83,West,270,1.1,2.0,86,0.00,,,0.00,WUHU216HW,2013-04-06 15:14:00,
2013-04-06 09:19:00,40.4,36.5,29.83,SW,225,0.0,2.9,86,0.00,,,0.00,WUHU216HW,2013-04-06 15:19:00,
2013-04-06 09:24:00,40.8,36.8,29.83,WSW,248,1.1,3.3,86,0.00,,,0.00,WUHU216HW,2013-04-06 15:24:00,
2013-04-06 09:29:00,40.8,36.5,29.83,SW,225,1.3,9.3,85,0.00,,,0.00,WUHU216HW,2013-04-06 15:29:00,
2013-04-06 09:34:00,41.0,36.4,29.83,SW,225,3.8,9.3,84,0.00,,,0.00,WUHU216HW,2013-04-06 15:34:00,
2013-04-06 09:39:00,41.1,36.6,29.83,SSW,203,5.1,6.9,84,0.00,,,0.00,WUHU216HW,2013-04-06 15:39:00,
2013-04-06 09:44:00,41.3,36.5,29.83,South,180,10.2,10.2,83,0.00,,,0.00,WUHU216HW,2013-04-06 15:44:00,
2013-04-06 09:49:00,41.3,36.5,29.83,SSW,203,5.8,10.7,83,0.00,,,0.00,WUHU216HW,2013-04-06 15:49:00,
2013-04-06 09:54:00,41.3,36.5,29.83,SSW,203,9.1,10.7,83,0.00,,,0.00,WUHU216HW,2013-04-06 15:54:00,
2013-04-06 09:59:00,41.3,36.5,29.82,SW,225,3.8,9.1,83,0.00,,,0.00,WUHU216HW,2013-04-06 15:59:00,
2013-04-06 10:04:00,41.3,36.5,29.82,WSW,248,2.9,8.5,83,0.00,,,0.00,WUHU216HW,2013-04-06 16:04:00,
2013-04-06 10:09:00,41.1,36.3,29.82,SW,225,2.4,8.9,83,0.00,,,0.00,WUHU216HW,2013-04-06 16:09:00,
2013-04-06 10:14:00,41.3,36.5,29.82,SW,225,7.1,10.5,83,0.00,,,0.00,WUHU216HW,2013-04-06 16:14:00,
2013-04-06 10:20:00,41.3,36.5,29.83,SW,225,0.6,10.5,83,0.00,,,0.00,WUHU216HW,2013-04-06 16:20:00,
2013-04-06 10:25:00,41.5,36.6,29.82,SW,225,2.2,6.2,83,0.00,,,0.00,WUHU216HW,2013-04-06 16:25:00,
2013-04-06 10:30:00,41.7,37.1,29.82,SSW,203,7.8,7.8,84,0.00,,,0.00,WUHU216HW,2013-04-06 16:30:00,
2013-04-06 10:35:00,41.9,37.3,29.82,SSW,203,4.4,7.8,84,0.00,,,0.00,WUHU216HW,2013-04-06 16:35:00,
2013-04-06 10:40:00,42.4,37.5,29.82,West,270,2.9,7.1,83,0.00,,,0.00,WUHU216HW,2013-04-06 16:40:00,
2013-04-06 10:45:00,42.6,37.4,29.82,SW,225,3.8,7.1,82,0.00,,,0.00,WUHU216HW,2013-04-06 16:45:00,
2013-04-06 10:50:00,42.9,37.5,29.82,WSW,248,2.9,6.7,81,0.00,,,0.00,WUHU216HW,2013-04-06 16:50:00,
2013-04-06 10:55:00,42.9,37.5,29.83,SSW,203,6.7,6.7,81,0.00,,,0.00,WUHU216HW,2013-04-06 16:55:00,
2013-04-06 11:00:00,42.9,37.5,29.83,SSW,203,6.7,6.7,81,0.00,,,0.00,WUHU216HW,2013-04-06 17:00:00,
2013-04-06 11:05:00,43.1,37.7,29.83,SW,225,2.2,6.7,81,0.00,,,0.00,WUHU216HW,2013-04-06 17:05:00,
2013-04-06 11:10:00,43.5,37.7,29.83,WNW,293,7.6,7.6,80,0.00,,,0.00,WUHU216HW,2013-04-06 17:10:00,
2013-04-06 11:16:00,43.7,37.2,29.83,WSW,248,4.2,7.6,78,0.00,,,0.00,WUHU216HW,2013-04-06 17:16:00,
2013-04-06 11:21:00,43.8,37.2,29.83,WSW,248,6.9,6.9,77,0.00,,,0.00,WUHU216HW,2013-04-06 17:21:00,
2013-04-06 11:26:00,44.2,37.1,29.83,SW,225,6.9,9.1,76,0.00,,,0.00,WUHU216HW,2013-04-06 17:26:00,
2013-04-06 11:31:00,44.4,37.2,29.83,WSW,248,5.5,9.1,76,0.00,,,0.00,WUHU216HW,2013-04-06 17:31:00,
2013-04-06 11:36:00,44.7,37.3,29.84,West,270,5.8,8.2,75,0.00,,,0.00,WUHU216HW,2013-04-06 17:36:00,
2013-04-06 11:41:00,44.6,37.2,29.84,West,270,3.1,8.2,76,0.00,,,0.00,WUHU216HW,2013-04-06 17:41:00,
2013-04-06 11:46:00,44.4,37.6,29.84,WSW,248,4.4,4.4,77,0.00,,,0.00,WUHU216HW,2013-04-06 17:46:00,
2013-04-06 11:51:00,44.0,37.6,29.84,West,270,2.9,5.3,78,0.00,,,0.00,WUHU216HW,2013-04-06 17:51:00,
2013-04-06 11:56:00,44.0,38.3,29.84,WSW,248,3.8,5.3,80,0.00,,,0.00,WUHU216HW,2013-04-06 17:56:00,
2013-04-06 12:02:00,44.2,38.1,29.84,SW,225,7.3,7.3,79,0.00,,,0.00,WUHU216HW,2013-04-06 18:02:00,
2013-04-06 12:07:00,44.2,38.1,29.84,SW,225,6.4,7.3,79,0.00,,,0.00,WUHU216HW,2013-04-06 18:07:00,
2013-04-06 12:12:00,44.2,37.4,29.84,SW,225,5.1,7.3,77,0.00,,,0.00,WUHU216HW,2013-04-06 18:12:00,
2013-04-06 12:17:00,43.8,37.1,29.84,West,270,4.2,7.3,77,0.00,,,0.00,WUHU216HW,2013-04-06 18:17:00,
2013-04-06 12:22:00,43.5,37.0,29.84,SW,225,0.0,6.7,78,0.00,,,0.00,WUHU216HW,2013-04-06 18:22:00,
2013-04-06 12:27:00,43.5,37.0,29.84,West,270,3.1,6.7,78,0.00,,,0.00,WUHU216HW,2013-04-06 18:27:00,
2013-04-06 12:32:00,43.3,36.9,29.84,West,270,4.0,5.1,78,0.00,,,0.00,WUHU216HW,2013-04-06 18:32:00,
2013-04-06 12:37:00,42.9,36.8,29.84,West,270,2.9,5.8,79,0.00,,,0.00,WUHU216HW,2013-04-06 18:37:00,
2013-04-06 12:42:00,42.6,36.5,29.84,WSW,248,4.9,5.8,79,0.00,,,0.00,WUHU216HW,2013-04-06 18:42:00,
2013-04-06 12:48:00,42.2,36.1,29.84,WSW,248,1.7,6.2,79,0.00,,,0.00,WUHU216HW,2013-04-06 18:48:00,
2013-04-06 12:53:00,41.9,36.4,29.84,SW,225,5.5,6.2,81,0.00,,,0.00,WUHU216HW,2013-04-06 18:53:00,
2013-04-06 12:58:00,41.9,36.7,29.84,SW,225,0.0,5.5,82,0.00,,,0.00,WUHU216HW,2013-04-06 18:58:00,
2013-04-06 13:03:00,42.2,37.7,29.83,WSW,248,1.3,3.5,84,0.00,,,0.00,WUHU216HW,2013-04-06 19:03:00,
2013-04-06 13:08:00,42.8,38.2,29.84,West,270,2.2,8.9,84,0.00,,,0.00,WUHU216HW,2013-04-06 19:08:00,
2013-04-06 13:13:00,43.5,38.6,29.83,West,270,2.2,8.9,83,0.00,,,0.00,WUHU216HW,2013-04-06 19:13:00,
2013-04-06 13:18:00,44.2,39.0,29.83,West,270,6.4,6.9,82,0.00,,,0.00,WUHU216HW,2013-04-06 19:18:00,
2013-04-06 13:23:00,44.7,38.6,29.83,WSW,248,8.0,11.4,79,0.00,,,0.00,WUHU216HW,2013-04-06 19:23:00,
2013-04-06 13:28:00,45.1,38.3,29.83,West,270,3.5,11.4,77,0.00,,,0.00,WUHU216HW,2013-04-06 19:28:00,
2013-04-06 13:33:00,45.3,37.5,29.83,SW,225,12.0,12.0,74,0.00,,,0.00,WUHU216HW,2013-04-06 19:33:00,
2013-04-06 13:38:00,45.3,36.1,29.83,SW,225,5.5,12.0,70,0.00,,,0.00,WUHU216HW,2013-04-06 19:38:00,
2013-04-06 13:43:00,45.1,35.5,29.83,West,270,3.5,9.6,69,0.00,,,0.00,WUHU216HW,2013-04-06 19:43:00,
2013-04-06 13:49:00,45.1,35.1,29.83,WSW,248,6.0,7.6,68,0.00,,,0.00,WUHU216HW,2013-04-06 19:49:00,
2013-04-06 13:54:00,45.5,35.5,29.83,West,270,4.6,11.8,68,0.00,,,0.00,WUHU216HW,2013-04-06 19:54:00,
2013-04-06 13:59:00,46.0,35.6,29.83,WNW,293,6.2,13.1,67,0.00,,,0.00,WUHU216HW,2013-04-06 19:59:00,
2013-04-06 14:04:00,46.0,36.0,29.83,WSW,248,7.8,8.2,68,0.00,,,0.00,WUHU216HW,2013-04-06 20:04:00,
2013-04-06 14:09:00,45.8,35.4,29.83,West,270,10.7,10.7,67,0.00,,,0.00,WUHU216HW,2013-04-06 20:09:00,
2013-04-06 14:15:00,46.0,34.8,29.84,West,270,8.0,10.7,65,0.00,,,0.00,WUHU216HW,2013-04-06 20:15:00,
2013-04-06 14:20:00,45.6,35.3,29.84,NW,315,16.3,16.3,67,0.00,,,0.00,WUHU216HW,2013-04-06 20:20:00,
2013-04-06 14:25:00,45.1,35.5,29.84,West,270,4.6,16.3,69,0.00,,,0.00,WUHU216HW,2013-04-06 20:25:00,
2013-04-06 14:30:00,44.6,35.4,29.84,West,270,9.3,9.3,70,0.00,,,0.00,WUHU216HW,2013-04-06 20:30:00,
2013-04-06 14:35:00,44.2,35.0,29.84,SW,225,5.8,9.3,70,0.00,,,0.00,WUHU216HW,2013-04-06 20:35:00,
2013-04-06 14:40:00,44.2,35.4,29.84,West,270,6.4,8.2,71,0.00,,,0.00,WUHU216HW,2013-04-06 20:40:00,
2013-04-06 14:45:00,44.7,36.6,29.83,WSW,248,7.3,8.2,73,0.00,,,0.00,WUHU216HW,2013-04-06 20:45:00,
2013-04-06 14:50:00,45.1,36.6,29.83,West,270,3.8,8.2,72,0.00,,,0.00,WUHU216HW,2013-04-06 20:50:00,
2013-04-06 14:55:00,45.3,36.8,29.83,West,270,5.5,8.2,72,0.00,,,0.00,WUHU216HW,2013-04-06 20:55:00,
2013-04-06 15:00:00,45.6,36.8,29.83,WSW,248,7.1,7.8,71,0.00,,,0.00,WUHU216HW,2013-04-06 21:00:00,
2013-04-06 15:05:00,46.0,36.4,29.84,SW,225,6.0,15.2,69,0.00,,,0.00,WUHU216HW,2013-04-06 21:05:00,
2013-04-06 15:10:00,46.0,36.0,29.84,WSW,248,5.1,18.1,68,0.00,,,0.00,WUHU216HW,2013-04-06 21:10:00,
2013-04-06 15:15:00,45.8,35.4,29.84,SW,225,17.6,18.1,67,0.00,,,0.00,WUHU216HW,2013-04-06 21:15:00,
2013-04-06 15:21:00,45.6,35.3,29.84,WSW,248,17.0,17.6,67,0.00,,,0.00,WUHU216HW,2013-04-06 21:21:00,
2013-04-06 15:26:00,46.2,35.0,29.84,WSW,248,6.2,17.0,65,0.00,,,0.00,WUHU216HW,2013-04-06 21:26:00,
2013-04-06 15:31:00,46.5,35.0,29.84,West,270,7.6,15.8,64,0.00,,,0.00,WUHU216HW,2013-04-06 21:31:00,
2013-04-06 15:36:00,46.7,34.3,29.84,WNW,293,4.6,15.8,62,0.00,,,0.00,WUHU216HW,2013-04-06 21:36:00,
2013-04-06 15:41:00,46.7,33.9,29.84,WSW,248,13.1,13.1,62,0.00,,,0.00,WUHU216HW,2013-04-06 21:41:00,
2013-04-06 15:47:00,46.5,33.8,29.83,WSW,248,6.9,13.1,61,0.00,,,0.00,WUHU216HW,2013-04-06 21:47:00,
2013-04-06 15:52:00,46.4,33.2,29.84,WSW,248,9.1,10.9,60,0.00,,,0.00,WUHU216HW,2013-04-06 21:52:00,
2013-04-06 15:57:00,46.2,33.4,29.84,West,270,12.9,12.9,61,0.00,,,0.00,WUHU216HW,2013-04-06 21:57:00,
2013-04-06 16:02:00,46.2,33.8,29.84,SSW,203,6.4,12.9,62,0.00,,,0.00,WUHU216HW,2013-04-06 22:02:00,
2013-04-06 16:07:00,46.0,33.3,29.84,West,270,4.2,11.6,61,0.00,,,0.00,WUHU216HW,2013-04-06 22:07:00,
2013-04-06 16:12:00,45.6,32.9,29.84,WSW,248,2.0,11.6,61,0.00,,,0.00,WUHU216HW,2013-04-06 22:12:00,
2013-04-06 16:17:00,45.5,32.8,29.84,West,270,5.3,11.8,61,0.00,,,0.00,WUHU216HW,2013-04-06 22:17:00,
2013-04-06 16:22:00,45.3,32.6,29.84,SW,225,1.7,14.3,61,0.00,,,0.00,WUHU216HW,2013-04-06 22:22:00,
2013-04-06 16:27:00,45.1,33.2,29.84,West,270,6.7,14.3,63,0.00,,,0.00,WUHU216HW,2013-04-06 22:27:00,
2013-04-06 16:32:00,44.9,33.0,29.84,WSW,248,4.4,10.0,63,0.00,,,0.00,WUHU216HW,2013-04-06 22:32:00,
2013-04-06 16:37:00,44.7,33.3,29.83,WSW,248,7.3,10.0,64,0.00,,,0.00,WUHU216HW,2013-04-06 22:37:00,
2013-04-06 16:42:00,44.7,33.6,29.84,WSW,248,2.6,9.1,65,0.00,,,0.00,WUHU216HW,2013-04-06 22:42:00,
2013-04-06 16:47:00,45.1,33.6,29.84,West,270,8.7,9.1,64,0.00,,,0.00,WUHU216HW,2013-04-06 22:47:00,
2013-04-06 16:52:00,45.1,33.0,29.83,West,270,4.2,8.7,63,0.00,,,0.00,WUHU216HW,2013-04-06 22:52:00,
2013-04-06 16:58:00,44.9,33.4,29.83,West,270,2.4,8.7,64,0.00,,,0.00,WUHU216HW,2013-04-06 22:58:00,
2013-04-06 17:03:00,45.1,33.6,29.83,West,270,3.3,9.8,64,0.00,,,0.00,WUHU216HW,2013-04-06 23:03:00,
2013-04-06 17:08:00,45.3,33.4,29.83,WSW,248,5.3,9.8,63,0.00,,,0.00,WUHU216HW,2013-04-06 23:08:00,
2013-04-06 17:13:00,45.6,33.6,29.83,West,270,5.5,8.9,63,0.00,,,0.00,WUHU216HW,2013-04-06 23:13:00,
2013-04-06 17:18:00,46.2,33.4,29.83,West,270,4.9,10.9,61,0.00,,,0.00,WUHU216HW,2013-04-06 23:18:00,
2013-04-06 17:23:00,46.5,33.4,29.83,West,270,5.1,10.9,60,0.00,,,0.00,WUHU216HW,2013-04-06 23:23:00,
2013-04-06 17:28:00,46.4,33.2,29.83,WSW,248,4.6,6.7,60,0.00,,,0.00,WUHU216HW,2013-04-06 23:28:00,
2013-04-06 17:33:00,46.2,33.0,29.83,WSW,248,4.9,8.0,60,0.00,,,0.00,WUHU216HW,2013-04-06 23:33:00,
2013-04-06 17:38:00,46.0,32.9,29.83,West,270,4.6,8.0,60,0.00,,,0.00,WUHU216HW,2013-04-06 23:38:00,
2013-04-06 17:43:00,45.6,32.1,29.83,WSW,248,3.8,11.4,59,0.00,,,0.00,WUHU216HW,2013-04-06 23:43:00,
2013-04-06 17:49:00,45.5,32.0,29.82,WNW,293,6.0,11.4,59,0.00,,,0.00,WUHU216HW,2013-04-06 23:49:00,
2013-04-06 17:54:00,45.5,31.5,29.83,West,270,3.3,6.7,58,0.00,,,0.00,WUHU216HW,2013-04-06 23:54:00,
2013-04-06 17:59:00,45.3,30.9,29.83,WSW,248,7.1,7.1,57,0.00,,,0.00,WUHU216HW,2013-04-06 23:59:00,
2013-04-06 18:04:00,45.3,30.9,29.83,West,270,8.2,8.2,57,0.00,,,0.00,WUHU216HW,2013-04-07 00:04:00,
2013-04-06 18:09:00,45.3,30.9,29.83,West,270,7.3,8.2,57,0.00,,,0.00,WUHU216HW,2013-04-07 00:09:00,
2013-04-06 18:14:00,45.1,29.8,29.83,WSW,248,4.4,7.3,55,0.00,,,0.00,WUHU216HW,2013-04-07 00:14:00,
2013-04-06 18:19:00,44.9,29.7,29.83,SW,225,6.9,9.1,55,0.00,,,0.00,WUHU216HW,2013-04-07 00:19:00,
2013-04-06 18:24:00,44.9,29.7,29.82,SW,225,12.5,12.5,55,0.00,,,0.00,WUHU216HW,2013-04-07 00:24:00,
2013-04-06 18:29:00,44.9,29.7,29.82,SW,225,8.7,12.5,55,0.00,,,0.00,WUHU216HW,2013-04-07 00:29:00,
2013-04-06 18:35:00,44.7,29.1,29.82,West,270,3.3,14.9,54,0.00,,,0.00,WUHU216HW,2013-04-07 00:35:00,
2013-04-06 18:40:00,44.4,28.7,29.82,WSW,248,3.3,14.9,54,0.00,,,0.00,WUHU216HW,2013-04-07 00:40:00,
2013-04-06 18:45:00,44.4,29.2,29.82,WSW,248,5.3,11.4,55,0.00,,,0.00,WUHU216HW,2013-04-07 00:45:00,
2013-04-06 18:50:00,44.2,28.5,29.82,WSW,248,2.6,11.4,54,0.00,,,0.00,WUHU216HW,2013-04-07 00:50:00,
2013-04-06 18:55:00,44.2,29.0,29.83,West,270,4.2,7.6,55,0.00,,,0.00,WUHU216HW,2013-04-07 00:55:00,
2013-04-06 19:00:00,44.2,29.0,29.82,WSW,248,3.8,6.2,55,0.00,,,0.00,WUHU216HW,2013-04-07 01:00:00,
2013-04-06 19:05:00,44.2,29.0,29.83,WNW,293,4.6,6.2,55,0.00,,,0.00,WUHU216HW,2013-04-07 01:05:00,
2013-04-06 19:10:00,44.2,29.9,29.84,West,270,5.1,7.1,57,0.00,,,0.00,WUHU216HW,2013-04-07 01:10:00,
2013-04-06 19:15:00,43.7,31.5,29.85,NNW,338,0.0,13.1,62,0.00,,,0.00,WUHU216HW,2013-04-07 01:15:00,
2013-04-06 19:20:00,42.6,31.2,29.84,NE,45,0.0,13.1,64,0.00,,,0.00,WUHU216HW,2013-04-07 01:20:00,
2013-04-06 19:25:00,41.9,31.3,29.84,NW,315,2.6,10.2,66,0.00,,,0.00,WUHU216HW,2013-04-07 01:25:00,
2013-04-06 19:30:00,41.1,31.0,29.84,NW,315,0.0,4.4,67,0.00,,,0.00,WUHU216HW,2013-04-07 01:30:00,
2013-04-06 19:35:00,40.6,30.8,29.85,NW,315,0.0,4.9,68,0.00,,,0.00,WUHU216HW,2013-04-07 01:35:00,
2013-04-06 19:41:00,40.1,31.1,29.86,NW,315,6.7,7.8,70,0.00,,,0.00,WUHU216HW,2013-04-07 01:41:00,
2013-04-06 19:46:00,39.3,30.3,29.85,WSW,248,5.8,9.3,70,0.00,,,0.00,WUHU216HW,2013-04-07 01:46:00,
2013-04-06 19:51:00,38.8,30.2,29.85,SW,225,8.9,9.3,71,0.00,,,0.00,WUHU216HW,2013-04-07 01:51:00,
2013-04-06 19:56:00,38.3,30.3,29.85,SW,225,8.7,8.9,73,0.00,,,0.00,WUHU216HW,2013-04-07 01:56:00,
2013-04-06 20:01:00,37.9,30.3,29.85,SW,225,3.8,8.7,74,0.00,,,0.00,WUHU216HW,2013-04-07 02:01:00,
2013-04-06 20:06:00,37.5,30.3,29.85,SSW,203,6.2,8.7,75,0.00,,,0.00,WUHU216HW,2013-04-07 02:06:00,
2013-04-06 20:11:00,37.2,30.0,29.85,SSW,203,6.7,6.7,75,0.00,,,0.00,WUHU216HW,2013-04-07 02:11:00,
2013-04-06 20:16:00,36.6,29.8,29.85,SW,225,1.1,6.9,76,0.00,,,0.00,WUHU216HW,2013-04-07 02:16:00,
2013-04-06 20:22:00,36.3,29.4,29.85,SSW,203,3.3,9.6,76,0.00,,,0.00,WUHU216HW,2013-04-07 02:22:00,
2013-04-06 20:27:00,36.3,29.7,29.86,SSE,158,7.3,9.6,77,0.00,,,0.00,WUHU216HW,2013-04-07 02:27:00,
2013-04-06 20:32:00,36.1,29.5,29.85,SW,225,4.4,7.8,77,0.00,,,0.00,WUHU216HW,2013-04-07 02:32:00,
2013-04-06 20:38:00,36.1,29.5,29.85,SW,225,4.2,7.8,77,0.00,,,0.00,WUHU216HW,2013-04-07 02:38:00,
2013-04-06 20:43:00,36.1,29.5,29.85,SW,225,3.3,8.0,77,0.00,,,0.00,WUHU216HW,2013-04-07 02:43:00,
2013-04-06 20:49:00,36.1,29.5,29.85,SSW,203,5.3,8.0,77,0.00,,,0.00,WUHU216HW,2013-04-07 02:49:00,
2013-04-06 20:54:00,36.1,29.2,29.85,SSW,203,3.1,5.3,76,0.00,,,0.00,WUHU216HW,2013-04-07 02:54:00,
2013-04-06 20:59:00,36.1,29.2,29.85,SW,225,3.3,4.9,76,0.00,,,0.00,WUHU216HW,2013-04-07 02:59:00,
2013-04-06 21:04:00,36.3,29.4,29.86,South,180,2.9,5.1,76,0.00,,,0.00,WUHU216HW,2013-04-07 03:04:00,
2013-04-06 21:09:00,36.3,29.4,29.86,SSW,203,0.0,5.1,76,0.00,,,0.00,WUHU216HW,2013-04-07 03:09:00,
2013-04-06 21:14:00,36.3,29.4,29.86,SSW,203,0.0,2.6,76,0.00,,,0.00,WUHU216HW,2013-04-07 03:14:00,
2013-04-06 21:19:00,36.1,29.2,29.86,SSW,203,0.0,2.9,76,0.00,,,0.00,WUHU216HW,2013-04-07 03:19:00,
2013-04-06 21:25:00,36.1,29.2,29.86,SSW,203,6.2,6.2,76,0.00,,,0.00,WUHU216HW,2013-04-07 03:25:00,
2013-04-06 21:30:00,35.9,29.2,29.86,SW,225,6.9,6.9,76,0.00,,,0.00,WUHU216HW,2013-04-07 03:30:00,
2013-04-06 21:35:00,36.3,29.4,29.86,SSW,203,5.1,8.9,76,0.00,,,0.00,WUHU216HW,2013-04-07 03:35:00,
2013-04-06 21:40:00,36.6,29.4,29.86,SW,225,3.3,8.9,75,0.00,,,0.00,WUHU216HW,2013-04-07 03:40:00,
2013-04-06 21:46:00,37.0,29.8,29.86,SW,225,4.9,8.9,75,0.00,,,0.00,WUHU216HW,2013-04-07 03:46:00,
2013-04-06 21:51:00,37.2,29.6,29.86,SW,225,2.4,8.0,74,0.00,,,0.00,WUHU216HW,2013-04-07 03:51:00,
2013-04-06 21:56:00,37.4,29.8,29.86,WSW,248,4.6,6.9,74,0.00,,,0.00,WUHU216HW,2013-04-07 03:56:00,
2013-04-06 22:00:00,37.5,29.7,29.86,SW,225,2.2,8.7,73,0.00,,,0.00,WUHU216HW,2013-04-07 04:00:00,
2013-04-06 22:02:00,37.4,29.5,29.86,SSW,203,2.6,8.7,73,0.00,,,0.00,WUHU216HW,2013-04-07 04:02:00,
2013-04-06 22:07:00,37.4,29.2,29.86,SSW,203,9.1,9.1,72,0.00,,,0.00,WUHU216HW,2013-04-07 04:07:00,
2013-04-06 22:12:00,37.4,29.2,29.86,SW,225,2.6,9.1,72,0.00,,,0.00,WUHU216HW,2013-04-07 04:12:00,
2013-04-06 22:17:00,37.2,29.0,29.86,West,270,3.8,6.9,72,0.00,,,0.00,WUHU216HW,2013-04-07 04:17:00,
2013-04-06 22:22:00,36.6,28.8,29.86,West,270,1.3,5.3,73,0.00,,,0.00,WUHU216HW,2013-04-07 04:22:00,
2013-04-06 22:27:00,36.1,28.6,29.86,SW,225,1.1,3.5,74,0.00,,,0.00,WUHU216HW,2013-04-07 04:27:00,
2013-04-06 22:32:00,35.4,27.8,29.86,SW,225,2.4,2.4,74,0.00,,,0.00,WUHU216HW,2013-04-07 04:32:00,
2013-04-06 22:37:00,34.8,27.6,29.86,SW,225,0.0,3.8,75,0.00,,,0.00,WUHU216HW,2013-04-07 04:37:00,
2013-04-06 22:42:00,34.3,27.1,29.86,West,270,0.0,3.8,75,0.00,,,0.00,WUHU216HW,2013-04-07 04:42:00,
2013-04-06 22:48:00,34.1,27.2,29.86,WNW,293,0.0,4.0,76,0.00,,,0.00,WUHU216HW,2013-04-07 04:48:00,
2013-04-06 22:52:00,33.6,27.0,29.86,North,0,0.0,4.0,77,0.00,,,0.00,WUHU216HW,2013-04-07 04:52:00,
2013-04-06 22:58:00,33.4,26.9,29.86,SW,225,2.6,4.6,77,0.00,,,0.00,WUHU216HW,2013-04-07 04:58:00,
2013-04-06 23:03:00,33.2,27.0,29.86,SSW,203,4.9,10.5,78,0.00,,,0.00,WUHU216HW,2013-04-07 05:03:00,
2013-04-06 23:08:00,33.6,27.0,29.86,WSW,248,3.5,10.5,77,0.00,,,0.00,WUHU216HW,2013-04-07 05:08:00,
2013-04-06 23:13:00,34.1,27.6,29.86,SW,225,5.5,7.8,77,0.00,,,0.00,WUHU216HW,2013-04-07 05:13:00,
2013-04-06 23:18:00,34.3,27.7,29.85,SW,225,6.2,7.8,77,0.00,,,0.00,WUHU216HW,2013-04-07 05:18:00,
2013-04-06 23:23:00,34.8,28.0,29.86,SSW,203,6.0,7.8,76,0.00,,,0.00,WUHU216HW,2013-04-07 05:23:00,
2013-04-06 23:28:00,35.4,28.2,29.85,SSW,203,6.0,6.0,75,0.00,,,0.00,WUHU216HW,2013-04-07 05:28:00,
2013-04-06 23:34:00,35.6,28.0,29.86,SSW,203,7.1,7.1,74,0.00,,,0.00,WUHU216HW,2013-04-07 05:34:00,
2013-04-06 23:39:00,35.7,28.2,29.85,SSW,203,10.2,10.2,74,0.00,,,0.00,WUHU216HW,2013-04-07 05:39:00,
2013-04-06 23:44:00,35.7,27.9,29.85,West,270,2.0,10.5,73,0.00,,,0.00,WUHU216HW,2013-04-07 05:44:00,
2013-04-06 23:50:00,36.1,28.2,29.86,SW,225,6.0,6.2,73,0.00,,,0.00,WUHU216HW,2013-04-07 05:50:00,
2013-04-06 23:55:00,36.3,28.1,29.85,SSW,203,2.4,8.9,72,0.00,,,0.00,WUHU216HW,2013-04-07 05:55:00,